createdAt,value
2024-05-09T00:00:48.181Z,18.47
2024-05-09T00:03:16.703Z,18.44
2024-05-09T00:05:45.247Z,18.51
2024-05-09T00:08:16.102Z,18.54
2024-05-09T00:10:47.468Z,18.58
2024-05-09T00:13:17.267Z,18.57
2024-05-09T00:15:45.877Z,18.56
2024-05-09T00:18:14.518Z,18.55
2024-05-09T00:20:43.229Z,18.45
2024-05-09T00:23:13.925Z,18.59
2024-05-09T00:25:45.882Z,18.51
2024-05-09T00:28:14.474Z,18.52
2024-05-09T00:30:42.725Z,18.48
2024-05-09T00:33:11.865Z,18.65
2024-05-09T00:35:41.928Z,18.78
2024-05-09T00:38:10.881Z,18.78
2024-05-09T00:40:42.472Z,18.62
2024-05-09T00:43:13.716Z,18.55
2024-05-09T00:45:44.068Z,18.51
2024-05-09T00:48:18.573Z,18.52
2024-05-09T00:50:49.895Z,18.59
2024-05-09T00:53:19.476Z,18.55
2024-05-09T00:55:48.413Z,18.62
2024-05-09T00:58:21.178Z,18.64
2024-05-09T01:00:50.816Z,18.63
2024-05-09T01:03:20.104Z,18.55
2024-05-09T01:05:48.781Z,18.68
2024-05-09T01:08:17.080Z,18.75
2024-05-09T01:10:47.860Z,18.79
2024-05-09T01:13:17.121Z,18.82
2024-05-09T01:15:45.481Z,18.68
2024-05-09T01:18:14.876Z,18.67
2024-05-09T01:20:45.094Z,18.54
2024-05-09T01:23:16.040Z,18.59
2024-05-09T01:25:46.744Z,18.48
2024-05-09T01:28:16.614Z,18.43
2024-05-09T01:30:44.865Z,18.37
2024-05-09T01:33:13.609Z,18.50
2024-05-09T01:35:43.135Z,18.67
2024-05-09T01:38:17.663Z,18.61
2024-05-09T01:40:47.290Z,18.51
2024-05-09T01:43:16.487Z,18.57
2024-05-09T01:45:44.979Z,18.47
2024-05-09T01:48:13.803Z,18.12
2024-05-09T01:50:43.263Z,18.01
2024-05-09T01:53:14.246Z,18.20
2024-05-09T01:55:43.677Z,18.08
2024-05-09T01:58:11.968Z,18.07
2024-05-09T02:00:42.605Z,18.05
2024-05-09T02:03:16.209Z,18.19
2024-05-09T02:05:47.713Z,18.11
2024-05-09T02:08:18.845Z,17.98
2024-05-09T02:10:49.179Z,17.99
2024-05-09T02:13:18.389Z,17.89
2024-05-09T02:15:47.027Z,17.79
2024-05-09T02:18:15.387Z,17.82
2024-05-09T02:20:44.244Z,17.75
2024-05-09T02:23:14.140Z,17.80
2024-05-09T02:25:42.629Z,17.80
2024-05-09T02:28:11.196Z,17.77
2024-05-09T02:30:41.614Z,17.81
2024-05-09T02:33:13.112Z,17.89
2024-05-09T02:35:44.045Z,17.92
2024-05-09T02:38:13.502Z,17.90
2024-05-09T02:40:42.136Z,17.92
2024-05-09T02:43:12.916Z,17.95
2024-05-09T02:45:42.064Z,17.88
2024-05-09T02:48:14.108Z,17.77
2024-05-09T02:50:44.842Z,17.71
2024-05-09T02:53:14.533Z,17.82
2024-05-09T02:55:43.369Z,17.79
2024-05-09T02:58:12.251Z,17.91
2024-05-09T03:00:42.551Z,17.91
2024-05-09T03:03:14.121Z,17.93
2024-05-09T03:05:45.077Z,18.13
2024-05-09T03:08:13.843Z,18.18
2024-05-09T03:10:42.289Z,18.15
2024-05-09T03:13:13.518Z,18.08
2024-05-09T03:15:43.375Z,18.07
2024-05-09T03:18:12.354Z,17.99
2024-05-09T03:20:41.162Z,17.81
2024-05-09T03:23:10.384Z,17.77
2024-05-09T03:25:39.314Z,17.64
2024-05-09T03:28:07.680Z,17.50
2024-05-09T03:30:41.300Z,17.54
2024-05-09T03:33:18.677Z,17.46
2024-05-09T03:35:49.258Z,17.49
2024-05-09T03:38:18.027Z,17.44
2024-05-09T03:40:51.223Z,17.12
2024-05-09T03:43:20.211Z,17.21
2024-05-09T03:45:50.784Z,17.30
2024-05-09T03:48:19.260Z,17.27
2024-05-09T03:50:47.718Z,17.29
2024-05-09T03:53:16.267Z,17.29
2024-05-09T03:55:44.526Z,17.32
